sensor_id;sensor_type;location;lat;lon;timestamp;P1;durP1;ratioP1;P2;durP2;ratioP2
13415;SDS011;6779;50.150;8.680;2024-01-27T00:01:29;11.93;;;3.03;;
13415;SDS011;6779;50.150;8.680;2024-01-27T00:03:55;10.40;;;2.93;;
13415;SDS011;6779;50.150;8.680;2024-01-27T00:06:20;6.40;;;2.63;;
13415;SDS011;6779;50.150;8.680;2024-01-27T00:08:45;10.83;;;3.17;;
13415;SDS011;6779;50.150;8.680;2024-01-27T00:11:11;9.83;;;3.40;;
13415;SDS011;6779;50.150;8.680;2024-01-27T00:13:36;9.10;;;3.00;;
13415;SDS011;6779;50.150;8.680;2024-01-27T00:16:02;11.23;;;3.00;;
13415;SDS011;6779;50.150;8.680;2024-01-27T00:18:27;10.03;;;2.77;;
13415;SDS011;6779;50.150;8.680;2024-01-27T00:20:52;10.20;;;3.00;;
13415;SDS011;6779;50.150;8.680;2024-01-27T00:23:18;12.93;;;3.53;;
13415;SDS011;6779;50.150;8.680;2024-01-27T00:25:43;10.57;;;3.57;;
13415;SDS011;6779;50.150;8.680;2024-01-27T00:28:08;16.80;;;3.90;;
13415;SDS011;6779;50.150;8.680;2024-01-27T00:30:34;9.73;;;3.53;;
13415;SDS011;6779;50.150;8.680;2024-01-27T00:32:59;10.07;;;3.13;;
13415;SDS011;6779;50.150;8.680;2024-01-27T00:35:24;9.90;;;3.40;;
13415;SDS011;6779;50.150;8.680;2024-01-27T00:37:49;13.27;;;4.00;;
13415;SDS011;6779;50.150;8.680;2024-01-27T00:40:15;7.30;;;3.10;;
13415;SDS011;6779;50.150;8.680;2024-01-27T00:42:40;10.40;;;3.40;;
13415;SDS011;6779;50.150;8.680;2024-01-27T00:45:06;11.63;;;2.77;;
13415;SDS011;6779;50.150;8.680;2024-01-27T00:47:31;9.20;;;3.83;;
13415;SDS011;6779;50.150;8.680;2024-01-27T00:49:57;5.13;;;2.87;;
13415;SDS011;6779;50.150;8.680;2024-01-27T00:52:22;10.03;;;3.13;;
13415;SDS011;6779;50.150;8.680;2024-01-27T00:54:47;7.23;;;2.80;;
13415;SDS011;6779;50.150;8.680;2024-01-27T00:57:13;9.17;;;3.33;;
13415;SDS011;6779;50.150;8.680;2024-01-27T00:59:38;11.97;;;3.00;;
13415;SDS011;6779;50.150;8.680;2024-01-27T01:02:03;10.37;;;2.93;;
13415;SDS011;6779;50.150;8.680;2024-01-27T01:04:29;9.53;;;3.07;;
13415;SDS011;6779;50.150;8.680;2024-01-27T01:06:54;8.33;;;2.70;;
13415;SDS011;6779;50.150;8.680;2024-01-27T01:09:20;14.53;;;3.87;;
13415;SDS011;6779;50.150;8.680;2024-01-27T01:11:45;9.60;;;3.20;;
13415;SDS011;6779;50.150;8.680;2024-01-27T01:14:10;14.33;;;3.40;;
13415;SDS011;6779;50.150;8.680;2024-01-27T01:16:36;9.73;;;3.00;;
13415;SDS011;6779;50.150;8.680;2024-01-27T01:19:01;11.07;;;2.87;;
13415;SDS011;6779;50.150;8.680;2024-01-27T01:21:26;11.00;;;2.87;;
13415;SDS011;6779;50.150;8.680;2024-01-27T01:23:53;14.60;;;3.13;;
13415;SDS011;6779;50.150;8.680;2024-01-27T01:26:18;11.53;;;3.63;;
13415;SDS011;6779;50.150;8.680;2024-01-27T01:28:43;11.67;;;2.87;;
13415;SDS011;6779;50.150;8.680;2024-01-27T01:31:09;9.80;;;3.00;;
13415;SDS011;6779;50.150;8.680;2024-01-27T01:33:34;12.57;;;3.63;;
13415;SDS011;6779;50.150;8.680;2024-01-27T01:35:59;10.40;;;2.87;;
13415;SDS011;6779;50.150;8.680;2024-01-27T01:38:25;5.73;;;2.50;;
13415;SDS011;6779;50.150;8.680;2024-01-27T01:40:50;7.47;;;2.70;;
13415;SDS011;6779;50.150;8.680;2024-01-27T01:43:15;8.77;;;2.87;;
13415;SDS011;6779;50.150;8.680;2024-01-27T01:45:40;12.47;;;2.53;;
13415;SDS011;6779;50.150;8.680;2024-01-27T01:48:06;9.37;;;2.90;;
13415;SDS011;6779;50.150;8.680;2024-01-27T01:50:32;10.07;;;3.60;;
13415;SDS011;6779;50.150;8.680;2024-01-27T01:52:57;12.00;;;2.97;;
13415;SDS011;6779;50.150;8.680;2024-01-27T01:55:23;8.57;;;3.03;;
13415;SDS011;6779;50.150;8.680;2024-01-27T01:57:48;12.10;;;3.43;;
13415;SDS011;6779;50.150;8.680;2024-01-27T02:00:15;10.00;;;3.30;;
13415;SDS011;6779;50.150;8.680;2024-01-27T02:02:42;10.30;;;2.80;;
13415;SDS011;6779;50.150;8.680;2024-01-27T02:05:13;11.93;;;4.37;;
13415;SDS011;6779;50.150;8.680;2024-01-27T02:07:39;9.60;;;2.97;;
13415;SDS011;6779;50.150;8.680;2024-01-27T02:10:05;9.00;;;3.03;;
13415;SDS011;6779;50.150;8.680;2024-01-27T02:12:32;13.70;;;3.77;;
13415;SDS011;6779;50.150;8.680;2024-01-27T02:14:58;11.13;;;2.90;;
13415;SDS011;6779;50.150;8.680;2024-01-27T02:17:23;11.63;;;3.50;;
13415;SDS011;6779;50.150;8.680;2024-01-27T02:19:48;8.50;;;2.90;;
13415;SDS011;6779;50.150;8.680;2024-01-27T02:22:14;15.17;;;3.10;;
13415;SDS011;6779;50.150;8.680;2024-01-27T02:24:39;9.27;;;3.43;;
13415;SDS011;6779;50.150;8.680;2024-01-27T02:27:04;11.70;;;3.23;;
13415;SDS011;6779;50.150;8.680;2024-01-27T02:29:30;11.67;;;2.90;;
13415;SDS011;6779;50.150;8.680;2024-01-27T02:31:55;12.57;;;3.17;;
13415;SDS011;6779;50.150;8.680;2024-01-27T02:34:21;9.83;;;3.33;;
13415;SDS011;6779;50.150;8.680;2024-01-27T02:36:46;12.57;;;3.57;;
13415;SDS011;6779;50.150;8.680;2024-01-27T02:39:11;12.83;;;2.70;;
13415;SDS011;6779;50.150;8.680;2024-01-27T02:41:36;11.80;;;2.70;;
13415;SDS011;6779;50.150;8.680;2024-01-27T02:44:04;9.67;;;2.93;;
13415;SDS011;6779;50.150;8.680;2024-01-27T02:46:32;11.00;;;2.70;;
13415;SDS011;6779;50.150;8.680;2024-01-27T02:48:57;10.33;;;3.37;;
13415;SDS011;6779;50.150;8.680;2024-01-27T02:51:22;14.80;;;3.10;;
13415;SDS011;6779;50.150;8.680;2024-01-27T02:53:48;13.60;;;3.77;;
13415;SDS011;6779;50.150;8.680;2024-01-27T02:56:13;9.73;;;3.10;;
13415;SDS011;6779;50.150;8.680;2024-01-27T02:58:41;11.43;;;2.80;;
13415;SDS011;6779;50.150;8.680;2024-01-27T03:01:07;14.67;;;3.00;;
13415;SDS011;6779;50.150;8.680;2024-01-27T03:03:32;7.47;;;2.60;;
13415;SDS011;6779;50.150;8.680;2024-01-27T03:05:57;10.80;;;2.67;;
13415;SDS011;6779;50.150;8.680;2024-01-27T03:08:23;14.40;;;3.67;;
13415;SDS011;6779;50.150;8.680;2024-01-27T03:10:48;10.13;;;2.97;;
13415;SDS011;6779;50.150;8.680;2024-01-27T03:13:13;13.37;;;3.10;;
13415;SDS011;6779;50.150;8.680;2024-01-27T03:15:38;10.40;;;2.90;;
13415;SDS011;6779;50.150;8.680;2024-01-27T03:18:04;14.33;;;2.83;;
13415;SDS011;6779;50.150;8.680;2024-01-27T03:20:29;12.83;;;3.53;;
13415;SDS011;6779;50.150;8.680;2024-01-27T03:22:56;7.90;;;3.00;;
13415;SDS011;6779;50.150;8.680;2024-01-27T03:25:21;5.87;;;2.80;;
13415;SDS011;6779;50.150;8.680;2024-01-27T03:27:47;9.30;;;2.90;;
13415;SDS011;6779;50.150;8.680;2024-01-27T03:30:12;15.20;;;3.83;;
13415;SDS011;6779;50.150;8.680;2024-01-27T03:32:37;17.33;;;3.67;;
13415;SDS011;6779;50.150;8.680;2024-01-27T03:35:03;14.40;;;3.27;;
13415;SDS011;6779;50.150;8.680;2024-01-27T03:37:29;20.07;;;5.23;;
13415;SDS011;6779;50.150;8.680;2024-01-27T03:39:54;12.53;;;3.10;;
13415;SDS011;6779;50.150;8.680;2024-01-27T03:42:19;13.27;;;3.37;;
13415;SDS011;6779;50.150;8.680;2024-01-27T03:44:45;14.03;;;3.23;;
13415;SDS011;6779;50.150;8.680;2024-01-27T03:47:10;18.53;;;3.47;;
13415;SDS011;6779;50.150;8.680;2024-01-27T03:49:35;9.47;;;3.23;;
13415;SDS011;6779;50.150;8.680;2024-01-27T03:52:01;10.13;;;3.10;;
13415;SDS011;6779;50.150;8.680;2024-01-27T03:54:26;9.23;;;3.40;;
13415;SDS011;6779;50.150;8.680;2024-01-27T03:56:51;10.03;;;2.80;;
13415;SDS011;6779;50.150;8.680;2024-01-27T03:59:16;9.13;;;3.00;;
13415;SDS011;6779;50.150;8.680;2024-01-27T04:01:42;10.17;;;3.60;;
13415;SDS011;6779;50.150;8.680;2024-01-27T04:04:07;9.03;;;3.17;;
13415;SDS011;6779;50.150;8.680;2024-01-27T04:06:36;11.77;;;3.23;;
13415;SDS011;6779;50.150;8.680;2024-01-27T04:09:03;12.57;;;3.37;;
13415;SDS011;6779;50.150;8.680;2024-01-27T04:11:28;9.47;;;2.97;;
13415;SDS011;6779;50.150;8.680;2024-01-27T04:13:53;13.27;;;3.30;;
13415;SDS011;6779;50.150;8.680;2024-01-27T04:16:19;14.63;;;3.50;;
13415;SDS011;6779;50.150;8.680;2024-01-27T04:18:44;11.23;;;3.67;;
13415;SDS011;6779;50.150;8.680;2024-01-27T04:21:09;13.80;;;3.33;;
13415;SDS011;6779;50.150;8.680;2024-01-27T04:23:35;11.60;;;3.67;;
13415;SDS011;6779;50.150;8.680;2024-01-27T04:26:00;9.00;;;3.03;;
13415;SDS011;6779;50.150;8.680;2024-01-27T04:28:25;10.17;;;3.30;;
13415;SDS011;6779;50.150;8.680;2024-01-27T04:30:51;11.83;;;3.20;;
13415;SDS011;6779;50.150;8.680;2024-01-27T04:33:16;9.00;;;3.10;;
13415;SDS011;6779;50.150;8.680;2024-01-27T04:35:41;6.47;;;3.33;;
13415;SDS011;6779;50.150;8.680;2024-01-27T04:38:10;10.97;;;3.13;;
13415;SDS011;6779;50.150;8.680;2024-01-27T04:40:35;9.83;;;3.67;;
13415;SDS011;6779;50.150;8.680;2024-01-27T04:43:00;11.30;;;3.00;;
13415;SDS011;6779;50.150;8.680;2024-01-27T04:45:26;14.03;;;3.80;;
13415;SDS011;6779;50.150;8.680;2024-01-27T04:47:52;13.30;;;3.37;;
13415;SDS011;6779;50.150;8.680;2024-01-27T04:50:18;6.37;;;3.10;;
13415;SDS011;6779;50.150;8.680;2024-01-27T04:52:43;11.20;;;3.37;;
13415;SDS011;6779;50.150;8.680;2024-01-27T04:55:09;12.63;;;3.50;;
13415;SDS011;6779;50.150;8.680;2024-01-27T04:57:34;8.83;;;3.37;;
13415;SDS011;6779;50.150;8.680;2024-01-27T04:59:59;15.53;;;4.30;;
13415;SDS011;6779;50.150;8.680;2024-01-27T05:02:24;11.37;;;4.50;;
13415;SDS011;6779;50.150;8.680;2024-01-27T05:04:50;11.60;;;3.77;;
13415;SDS011;6779;50.150;8.680;2024-01-27T05:07:15;11.87;;;3.47;;
13415;SDS011;6779;50.150;8.680;2024-01-27T05:09:40;11.17;;;3.83;;
13415;SDS011;6779;50.150;8.680;2024-01-27T05:12:06;14.07;;;4.47;;
13415;SDS011;6779;50.150;8.680;2024-01-27T05:14:31;10.87;;;4.20;;
13415;SDS011;6779;50.150;8.680;2024-01-27T05:16:56;14.43;;;4.20;;
13415;SDS011;6779;50.150;8.680;2024-01-27T05:19:22;14.60;;;4.23;;
13415;SDS011;6779;50.150;8.680;2024-01-27T05:21:47;14.07;;;4.63;;
13415;SDS011;6779;50.150;8.680;2024-01-27T05:24:12;14.13;;;4.70;;
13415;SDS011;6779;50.150;8.680;2024-01-27T05:26:37;13.40;;;5.27;;
13415;SDS011;6779;50.150;8.680;2024-01-27T05:29:03;21.23;;;4.40;;
13415;SDS011;6779;50.150;8.680;2024-01-27T05:31:28;13.63;;;4.63;;
13415;SDS011;6779;50.150;8.680;2024-01-27T05:33:53;14.13;;;4.73;;
13415;SDS011;6779;50.150;8.680;2024-01-27T05:36:20;17.37;;;4.07;;
13415;SDS011;6779;50.150;8.680;2024-01-27T05:38:45;12.97;;;4.00;;
13415;SDS011;6779;50.150;8.680;2024-01-27T05:41:10;13.33;;;4.67;;
13415;SDS011;6779;50.150;8.680;2024-01-27T05:43:35;11.07;;;3.90;;
13415;SDS011;6779;50.150;8.680;2024-01-27T05:46:01;11.77;;;4.33;;
13415;SDS011;6779;50.150;8.680;2024-01-27T05:48:26;12.53;;;4.50;;
13415;SDS011;6779;50.150;8.680;2024-01-27T05:50:55;15.80;;;4.70;;
13415;SDS011;6779;50.150;8.680;2024-01-27T05:53:21;8.57;;;4.13;;
13415;SDS011;6779;50.150;8.680;2024-01-27T05:55:47;12.50;;;4.53;;
13415;SDS011;6779;50.150;8.680;2024-01-27T05:58:12;7.57;;;4.33;;
13415;SDS011;6779;50.150;8.680;2024-01-27T06:00:37;15.73;;;4.87;;
13415;SDS011;6779;50.150;8.680;2024-01-27T06:03:03;11.00;;;4.80;;
13415;SDS011;6779;50.150;8.680;2024-01-27T06:05:28;13.00;;;4.30;;
13415;SDS011;6779;50.150;8.680;2024-01-27T06:07:53;12.07;;;4.30;;
13415;SDS011;6779;50.150;8.680;2024-01-27T06:10:19;15.73;;;4.77;;
13415;SDS011;6779;50.150;8.680;2024-01-27T06:12:44;8.80;;;4.13;;
13415;SDS011;6779;50.150;8.680;2024-01-27T06:15:09;9.50;;;4.20;;
13415;SDS011;6779;50.150;8.680;2024-01-27T06:17:35;9.30;;;5.17;;
13415;SDS011;6779;50.150;8.680;2024-01-27T06:20:01;14.80;;;4.47;;
13415;SDS011;6779;50.150;8.680;2024-01-27T06:22:26;17.47;;;4.77;;
13415;SDS011;6779;50.150;8.680;2024-01-27T06:24:51;15.83;;;4.23;;
13415;SDS011;6779;50.150;8.680;2024-01-27T06:27:17;13.70;;;4.93;;
13415;SDS011;6779;50.150;8.680;2024-01-27T06:29:42;11.07;;;4.83;;
13415;SDS011;6779;50.150;8.680;2024-01-27T06:32:09;17.27;;;4.40;;
13415;SDS011;6779;50.150;8.680;2024-01-27T06:34:34;10.37;;;3.97;;
13415;SDS011;6779;50.150;8.680;2024-01-27T06:36:59;15.00;;;4.73;;
13415;SDS011;6779;50.150;8.680;2024-01-27T06:39:25;10.70;;;4.40;;
13415;SDS011;6779;50.150;8.680;2024-01-27T06:41:50;13.30;;;5.27;;
13415;SDS011;6779;50.150;8.680;2024-01-27T06:44:15;15.67;;;4.10;;
13415;SDS011;6779;50.150;8.680;2024-01-27T06:46:41;14.03;;;3.90;;
13415;SDS011;6779;50.150;8.680;2024-01-27T06:49:06;17.53;;;4.73;;
13415;SDS011;6779;50.150;8.680;2024-01-27T06:51:31;48.90;;;13.93;;
13415;SDS011;6779;50.150;8.680;2024-01-27T06:53:56;37.83;;;10.23;;
13415;SDS011;6779;50.150;8.680;2024-01-27T06:56:22;13.77;;;5.80;;
13415;SDS011;6779;50.150;8.680;2024-01-27T06:58:47;15.47;;;4.40;;
13415;SDS011;6779;50.150;8.680;2024-01-27T07:01:12;13.13;;;5.33;;
13415;SDS011;6779;50.150;8.680;2024-01-27T07:03:38;11.10;;;5.27;;
13415;SDS011;6779;50.150;8.680;2024-01-27T07:06:04;9.40;;;4.20;;
13415;SDS011;6779;50.150;8.680;2024-01-27T07:08:31;10.57;;;4.53;;
13415;SDS011;6779;50.150;8.680;2024-01-27T07:10:57;14.07;;;4.63;;
13415;SDS011;6779;50.150;8.680;2024-01-27T07:13:23;11.17;;;4.77;;
13415;SDS011;6779;50.150;8.680;2024-01-27T07:15:48;15.77;;;5.00;;
13415;SDS011;6779;50.150;8.680;2024-01-27T07:18:13;13.23;;;4.97;;
13415;SDS011;6779;50.150;8.680;2024-01-27T07:20:40;9.37;;;4.43;;
13415;SDS011;6779;50.150;8.680;2024-01-27T07:23:05;12.30;;;4.50;;
13415;SDS011;6779;50.150;8.680;2024-01-27T07:25:31;13.07;;;4.30;;
13415;SDS011;6779;50.150;8.680;2024-01-27T07:27:56;9.53;;;4.00;;
13415;SDS011;6779;50.150;8.680;2024-01-27T07:30:21;11.83;;;4.07;;
13415;SDS011;6779;50.150;8.680;2024-01-27T07:32:47;11.43;;;5.07;;
13415;SDS011;6779;50.150;8.680;2024-01-27T07:35:12;11.77;;;4.40;;
13415;SDS011;6779;50.150;8.680;2024-01-27T07:37:37;10.97;;;4.03;;
13415;SDS011;6779;50.150;8.680;2024-01-27T07:40:03;12.47;;;4.77;;
13415;SDS011;6779;50.150;8.680;2024-01-27T07:42:30;7.87;;;4.27;;
13415;SDS011;6779;50.150;8.680;2024-01-27T07:44:55;12.20;;;5.20;;
13415;SDS011;6779;50.150;8.680;2024-01-27T07:47:21;11.10;;;4.63;;
13415;SDS011;6779;50.150;8.680;2024-01-27T07:49:46;13.43;;;4.67;;
13415;SDS011;6779;50.150;8.680;2024-01-27T07:52:13;12.63;;;4.30;;
13415;SDS011;6779;50.150;8.680;2024-01-27T07:54:39;9.40;;;5.13;;
13415;SDS011;6779;50.150;8.680;2024-01-27T07:57:05;11.87;;;4.57;;
13415;SDS011;6779;50.150;8.680;2024-01-27T07:59:30;11.67;;;4.90;;
13415;SDS011;6779;50.150;8.680;2024-01-27T08:01:56;11.47;;;4.77;;
13415;SDS011;6779;50.150;8.680;2024-01-27T08:04:21;15.73;;;4.97;;
13415;SDS011;6779;50.150;8.680;2024-01-27T08:06:47;12.13;;;5.27;;
13415;SDS011;6779;50.150;8.680;2024-01-27T08:09:13;17.80;;;5.57;;
13415;SDS011;6779;50.150;8.680;2024-01-27T08:11:39;12.97;;;4.93;;
13415;SDS011;6779;50.150;8.680;2024-01-27T08:14:04;11.70;;;5.07;;
13415;SDS011;6779;50.150;8.680;2024-01-27T08:16:29;11.73;;;4.93;;
13415;SDS011;6779;50.150;8.680;2024-01-27T08:18:54;15.43;;;4.60;;
13415;SDS011;6779;50.150;8.680;2024-01-27T08:21:20;14.40;;;5.10;;
13415;SDS011;6779;50.150;8.680;2024-01-27T08:23:45;12.70;;;5.23;;
13415;SDS011;6779;50.150;8.680;2024-01-27T08:26:11;14.90;;;5.60;;
13415;SDS011;6779;50.150;8.680;2024-01-27T08:28:36;13.33;;;5.17;;
13415;SDS011;6779;50.150;8.680;2024-01-27T08:31:01;12.67;;;4.43;;
13415;SDS011;6779;50.150;8.680;2024-01-27T08:33:27;12.60;;;4.67;;
13415;SDS011;6779;50.150;8.680;2024-01-27T08:35:52;11.70;;;4.43;;
13415;SDS011;6779;50.150;8.680;2024-01-27T08:38:18;12.90;;;4.53;;
13415;SDS011;6779;50.150;8.680;2024-01-27T08:40:43;10.43;;;4.30;;
13415;SDS011;6779;50.150;8.680;2024-01-27T08:43:09;9.77;;;4.03;;
13415;SDS011;6779;50.150;8.680;2024-01-27T08:45:35;8.73;;;4.60;;
13415;SDS011;6779;50.150;8.680;2024-01-27T08:48:00;14.00;;;4.97;;
13415;SDS011;6779;50.150;8.680;2024-01-27T08:50:26;13.87;;;4.67;;
13415;SDS011;6779;50.150;8.680;2024-01-27T08:52:51;7.83;;;4.30;;
13415;SDS011;6779;50.150;8.680;2024-01-27T08:55:16;12.60;;;5.50;;
13415;SDS011;6779;50.150;8.680;2024-01-27T08:57:44;9.33;;;3.73;;
13415;SDS011;6779;50.150;8.680;2024-01-27T09:00:10;9.97;;;4.37;;
13415;SDS011;6779;50.150;8.680;2024-01-27T09:02:36;10.50;;;4.67;;
13415;SDS011;6779;50.150;8.680;2024-01-27T09:05:01;8.23;;;4.57;;
13415;SDS011;6779;50.150;8.680;2024-01-27T09:07:27;11.73;;;4.47;;
13415;SDS011;6779;50.150;8.680;2024-01-27T09:09:53;8.00;;;3.90;;
13415;SDS011;6779;50.150;8.680;2024-01-27T09:12:18;12.47;;;4.80;;
13415;SDS011;6779;50.150;8.680;2024-01-27T09:14:43;10.50;;;3.80;;
13415;SDS011;6779;50.150;8.680;2024-01-27T09:17:09;11.53;;;4.90;;
13415;SDS011;6779;50.150;8.680;2024-01-27T09:19:34;12.57;;;4.50;;
13415;SDS011;6779;50.150;8.680;2024-01-27T09:21:59;13.43;;;4.77;;
13415;SDS011;6779;50.150;8.680;2024-01-27T09:24:25;8.80;;;4.27;;
13415;SDS011;6779;50.150;8.680;2024-01-27T09:26:50;9.87;;;3.87;;
13415;SDS011;6779;50.150;8.680;2024-01-27T09:29:16;7.57;;;4.67;;
13415;SDS011;6779;50.150;8.680;2024-01-27T09:31:42;7.10;;;3.97;;
13415;SDS011;6779;50.150;8.680;2024-01-27T09:34:07;13.60;;;5.00;;
13415;SDS011;6779;50.150;8.680;2024-01-27T09:36:33;10.57;;;4.17;;
13415;SDS011;6779;50.150;8.680;2024-01-27T09:38:58;7.03;;;4.17;;
13415;SDS011;6779;50.150;8.680;2024-01-27T09:41:24;12.07;;;4.50;;
13415;SDS011;6779;50.150;8.680;2024-01-27T09:44:00;10.37;;;4.70;;
13415;SDS011;6779;50.150;8.680;2024-01-27T09:46:27;12.63;;;5.70;;
13415;SDS011;6779;50.150;8.680;2024-01-27T09:48:53;10.27;;;4.27;;
13415;SDS011;6779;50.150;8.680;2024-01-27T09:51:18;7.53;;;4.57;;
13415;SDS011;6779;50.150;8.680;2024-01-27T09:53:44;11.50;;;4.50;;
13415;SDS011;6779;50.150;8.680;2024-01-27T09:56:10;10.83;;;4.77;;
13415;SDS011;6779;50.150;8.680;2024-01-27T09:58:37;10.50;;;5.03;;
13415;SDS011;6779;50.150;8.680;2024-01-27T10:01:02;15.83;;;5.63;;
13415;SDS011;6779;50.150;8.680;2024-01-27T10:03:28;13.37;;;5.60;;
13415;SDS011;6779;50.150;8.680;2024-01-27T10:05:54;11.00;;;5.50;;
13415;SDS011;6779;50.150;8.680;2024-01-27T10:08:20;13.20;;;5.23;;
13415;SDS011;6779;50.150;8.680;2024-01-27T10:10:47;12.23;;;5.20;;
13415;SDS011;6779;50.150;8.680;2024-01-27T10:13:12;10.50;;;5.37;;
13415;SDS011;6779;50.150;8.680;2024-01-27T10:15:39;10.20;;;5.30;;
13415;SDS011;6779;50.150;8.680;2024-01-27T10:18:07;11.70;;;4.97;;
13415;SDS011;6779;50.150;8.680;2024-01-27T10:20:33;14.80;;;4.97;;
13415;SDS011;6779;50.150;8.680;2024-01-27T10:22:59;14.23;;;5.37;;
13415;SDS011;6779;50.150;8.680;2024-01-27T10:25:24;9.53;;;4.83;;
13415;SDS011;6779;50.150;8.680;2024-01-27T10:27:55;10.73;;;5.07;;
13415;SDS011;6779;50.150;8.680;2024-01-27T10:30:20;10.20;;;4.80;;
13415;SDS011;6779;50.150;8.680;2024-01-27T10:32:58;11.20;;;4.87;;
13415;SDS011;6779;50.150;8.680;2024-01-27T10:35:23;14.13;;;5.13;;
13415;SDS011;6779;50.150;8.680;2024-01-27T10:37:52;12.20;;;5.00;;
13415;SDS011;6779;50.150;8.680;2024-01-27T10:40:18;15.10;;;5.87;;
13415;SDS011;6779;50.150;8.680;2024-01-27T10:42:43;13.23;;;4.93;;
13415;SDS011;6779;50.150;8.680;2024-01-27T10:45:09;17.97;;;5.00;;
13415;SDS011;6779;50.150;8.680;2024-01-27T10:47:36;13.70;;;5.13;;
13415;SDS011;6779;50.150;8.680;2024-01-27T10:50:03;12.50;;;4.97;;
13415;SDS011;6779;50.150;8.680;2024-01-27T10:52:33;9.93;;;4.77;;
13415;SDS011;6779;50.150;8.680;2024-01-27T10:55:01;11.03;;;4.53;;
13415;SDS011;6779;50.150;8.680;2024-01-27T10:57:29;13.30;;;4.53;;
13415;SDS011;6779;50.150;8.680;2024-01-27T10:59:55;11.97;;;5.87;;
13415;SDS011;6779;50.150;8.680;2024-01-27T11:02:21;9.63;;;4.33;;
13415;SDS011;6779;50.150;8.680;2024-01-27T11:04:48;14.27;;;4.70;;
13415;SDS011;6779;50.150;8.680;2024-01-27T11:07:14;10.07;;;4.80;;
13415;SDS011;6779;50.150;8.680;2024-01-27T11:09:40;11.27;;;4.20;;
13415;SDS011;6779;50.150;8.680;2024-01-27T11:12:07;9.37;;;4.17;;
13415;SDS011;6779;50.150;8.680;2024-01-27T11:14:33;13.53;;;3.70;;
13415;SDS011;6779;50.150;8.680;2024-01-27T11:16:58;15.13;;;4.50;;
13415;SDS011;6779;50.150;8.680;2024-01-27T11:19:24;13.10;;;4.57;;
13415;SDS011;6779;50.150;8.680;2024-01-27T11:22:02;12.07;;;4.53;;
13415;SDS011;6779;50.150;8.680;2024-01-27T11:24:27;14.97;;;4.60;;
13415;SDS011;6779;50.150;8.680;2024-01-27T11:26:59;9.67;;;3.80;;
13415;SDS011;6779;50.150;8.680;2024-01-27T11:29:28;10.07;;;3.70;;
13415;SDS011;6779;50.150;8.680;2024-01-27T11:31:54;7.87;;;3.73;;
13415;SDS011;6779;50.150;8.680;2024-01-27T11:34:20;8.10;;;3.73;;
13415;SDS011;6779;50.150;8.680;2024-01-27T11:36:46;9.30;;;3.40;;
13415;SDS011;6779;50.150;8.680;2024-01-27T11:41:50;10.23;;;3.60;;
13415;SDS011;6779;50.150;8.680;2024-01-27T11:44:16;10.43;;;3.80;;
13415;SDS011;6779;50.150;8.680;2024-01-27T11:46:42;10.00;;;3.40;;
13415;SDS011;6779;50.150;8.680;2024-01-27T11:49:12;8.97;;;3.43;;
13415;SDS011;6779;50.150;8.680;2024-01-27T11:51:40;11.33;;;3.10;;
13415;SDS011;6779;50.150;8.680;2024-01-27T11:54:05;8.03;;;3.17;;
13415;SDS011;6779;50.150;8.680;2024-01-27T11:56:30;8.53;;;2.90;;
13415;SDS011;6779;50.150;8.680;2024-01-27T11:58:56;8.97;;;3.43;;
13415;SDS011;6779;50.150;8.680;2024-01-27T12:01:21;10.93;;;3.60;;
13415;SDS011;6779;50.150;8.680;2024-01-27T12:03:47;8.17;;;3.00;;
13415;SDS011;6779;50.150;8.680;2024-01-27T12:06:13;8.77;;;3.10;;
13415;SDS011;6779;50.150;8.680;2024-01-27T12:08:40;7.40;;;3.23;;
13415;SDS011;6779;50.150;8.680;2024-01-27T12:11:11;9.50;;;3.30;;
13415;SDS011;6779;50.150;8.680;2024-01-27T12:13:37;10.73;;;3.50;;
13415;SDS011;6779;50.150;8.680;2024-01-27T12:16:02;8.93;;;3.27;;
13415;SDS011;6779;50.150;8.680;2024-01-27T12:18:27;9.87;;;3.27;;
13415;SDS011;6779;50.150;8.680;2024-01-27T12:20:56;11.07;;;3.70;;
13415;SDS011;6779;50.150;8.680;2024-01-27T12:23:24;10.90;;;3.10;;
13415;SDS011;6779;50.150;8.680;2024-01-27T12:25:53;10.63;;;3.37;;
13415;SDS011;6779;50.150;8.680;2024-01-27T12:28:19;15.23;;;3.07;;
13415;SDS011;6779;50.150;8.680;2024-01-27T12:30:45;10.90;;;3.00;;
13415;SDS011;6779;50.150;8.680;2024-01-27T12:33:11;9.83;;;2.27;;
13415;SDS011;6779;50.150;8.680;2024-01-27T12:35:37;7.57;;;3.33;;
13415;SDS011;6779;50.150;8.680;2024-01-27T12:38:02;14.60;;;3.43;;
13415;SDS011;6779;50.150;8.680;2024-01-27T12:40:31;8.87;;;2.63;;
13415;SDS011;6779;50.150;8.680;2024-01-27T12:42:56;9.03;;;2.83;;
13415;SDS011;6779;50.150;8.680;2024-01-27T12:45:21;12.70;;;3.50;;
13415;SDS011;6779;50.150;8.680;2024-01-27T12:47:46;13.53;;;3.37;;
13415;SDS011;6779;50.150;8.680;2024-01-27T12:50:12;10.57;;;3.03;;
13415;SDS011;6779;50.150;8.680;2024-01-27T12:52:37;13.70;;;3.60;;
13415;SDS011;6779;50.150;8.680;2024-01-27T12:55:04;11.23;;;3.13;;
13415;SDS011;6779;50.150;8.680;2024-01-27T12:57:30;12.30;;;2.80;;
13415;SDS011;6779;50.150;8.680;2024-01-27T12:59:56;7.63;;;3.10;;
13415;SDS011;6779;50.150;8.680;2024-01-27T13:02:21;13.73;;;3.67;;
13415;SDS011;6779;50.150;8.680;2024-01-27T13:04:46;9.47;;;2.43;;
13415;SDS011;6779;50.150;8.680;2024-01-27T13:07:12;10.47;;;2.60;;
13415;SDS011;6779;50.150;8.680;2024-01-27T13:09:37;14.40;;;3.40;;
13415;SDS011;6779;50.150;8.680;2024-01-27T13:12:03;7.93;;;2.10;;
13415;SDS011;6779;50.150;8.680;2024-01-27T13:14:28;5.43;;;2.17;;
13415;SDS011;6779;50.150;8.680;2024-01-27T13:16:54;10.30;;;2.43;;
13415;SDS011;6779;50.150;8.680;2024-01-27T13:19:19;7.83;;;3.60;;
13415;SDS011;6779;50.150;8.680;2024-01-27T13:21:45;6.73;;;2.77;;
13415;SDS011;6779;50.150;8.680;2024-01-27T13:24:10;12.23;;;3.03;;
13415;SDS011;6779;50.150;8.680;2024-01-27T13:26:36;8.90;;;2.47;;
13415;SDS011;6779;50.150;8.680;2024-01-27T13:29:03;8.40;;;2.97;;
13415;SDS011;6779;50.150;8.680;2024-01-27T13:31:29;9.90;;;3.40;;
13415;SDS011;6779;50.150;8.680;2024-01-27T13:33:54;10.33;;;2.87;;
13415;SDS011;6779;50.150;8.680;2024-01-27T13:36:20;10.87;;;2.87;;
13415;SDS011;6779;50.150;8.680;2024-01-27T13:38:46;12.00;;;2.60;;
13415;SDS011;6779;50.150;8.680;2024-01-27T13:41:11;8.30;;;3.20;;
13415;SDS011;6779;50.150;8.680;2024-01-27T13:43:36;10.07;;;3.43;;
13415;SDS011;6779;50.150;8.680;2024-01-27T13:46:02;8.50;;;3.43;;
13415;SDS011;6779;50.150;8.680;2024-01-27T13:48:27;10.67;;;3.73;;
13415;SDS011;6779;50.150;8.680;2024-01-27T13:50:52;13.73;;;3.87;;
13415;SDS011;6779;50.150;8.680;2024-01-27T13:53:18;11.03;;;3.40;;
13415;SDS011;6779;50.150;8.680;2024-01-27T13:55:43;7.93;;;3.33;;
13415;SDS011;6779;50.150;8.680;2024-01-27T13:58:09;17.03;;;3.53;;
13415;SDS011;6779;50.150;8.680;2024-01-27T14:00:34;8.97;;;3.73;;
13415;SDS011;6779;50.150;8.680;2024-01-27T14:03:00;8.50;;;3.40;;
13415;SDS011;6779;50.150;8.680;2024-01-27T14:05:25;8.70;;;3.50;;
13415;SDS011;6779;50.150;8.680;2024-01-27T14:07:51;9.97;;;3.70;;
13415;SDS011;6779;50.150;8.680;2024-01-27T14:10:16;10.27;;;3.60;;
13415;SDS011;6779;50.150;8.680;2024-01-27T14:12:41;9.97;;;2.90;;
13415;SDS011;6779;50.150;8.680;2024-01-27T14:15:08;11.43;;;3.17;;
13415;SDS011;6779;50.150;8.680;2024-01-27T14:17:34;8.87;;;2.87;;
13415;SDS011;6779;50.150;8.680;2024-01-27T14:20:01;10.77;;;3.87;;
13415;SDS011;6779;50.150;8.680;2024-01-27T14:22:27;10.57;;;2.87;;
13415;SDS011;6779;50.150;8.680;2024-01-27T14:24:52;7.93;;;3.10;;
13415;SDS011;6779;50.150;8.680;2024-01-27T14:27:18;8.23;;;3.03;;
13415;SDS011;6779;50.150;8.680;2024-01-27T14:29:50;11.10;;;3.30;;
13415;SDS011;6779;50.150;8.680;2024-01-27T14:32:15;7.03;;;2.90;;
13415;SDS011;6779;50.150;8.680;2024-01-27T14:34:41;16.70;;;5.37;;
13415;SDS011;6779;50.150;8.680;2024-01-27T14:37:06;20.10;;;5.87;;
13415;SDS011;6779;50.150;8.680;2024-01-27T14:39:32;11.90;;;3.60;;
13415;SDS011;6779;50.150;8.680;2024-01-27T14:41:58;15.80;;;3.43;;
13415;SDS011;6779;50.150;8.680;2024-01-27T14:44:23;10.13;;;3.03;;
13415;SDS011;6779;50.150;8.680;2024-01-27T14:46:49;9.40;;;3.03;;